sensor_id;sensor_type;location;lat;lon;timestamp;pressure;altitude;pressure_sealevel;temperature;humidity
45253;BME280;63171;50.520;30.486;2024-02-14T00:00:08;99566.13;;;11.28;100.00
45253;BME280;63171;50.520;30.486;2024-02-14T00:01:03;99563.00;;;11.23;100.00
45253;BME280;63171;50.520;30.486;2024-02-14T00:01:56;99569.38;;;11.19;100.00
45253;BME280;63171;50.520;30.486;2024-02-14T00:02:47;99566.75;;;11.19;100.00
45253;BME280;63171;50.520;30.486;2024-02-14T00:03:38;99569.38;;;11.19;100.00
45253;BME280;63171;50.520;30.486;2024-02-14T00:04:28;99563.00;;;11.10;100.00
45253;BME280;63171;50.520;30.486;2024-02-14T00:05:20;99572.66;;;11.10;100.00
45253;BME280;63171;50.520;30.486;2024-02-14T00:06:10;99569.28;;;11.08;100.00
45253;BME280;63171;50.520;30.486;2024-02-14T00:07:01;99578.19;;;11.05;100.00
45253;BME280;63171;50.520;30.486;2024-02-14T00:07:52;99571.28;;;11.04;100.00
45253;BME280;63171;50.520;30.486;2024-02-14T00:08:42;99571.38;;;11.03;100.00
45253;BME280;63171;50.520;30.486;2024-02-14T00:09:31;99573.16;;;11.02;100.00
45253;BME280;63171;50.520;30.486;2024-02-14T00:10:22;99579.75;;;10.95;100.00
45253;BME280;63171;50.520;30.486;2024-02-14T00:11:12;99579.00;;;10.80;100.00
45253;BME280;63171;50.520;30.486;2024-02-14T00:12:04;99584.91;;;10.71;100.00
45253;BME280;63171;50.520;30.486;2024-02-14T00:12:54;99576.59;;;10.77;100.00
45253;BME280;63171;50.520;30.486;2024-02-14T00:13:44;99584.81;;;10.85;100.00
45253;BME280;63171;50.520;30.486;2024-02-14T00:14:35;99590.44;;;10.92;100.00
45253;BME280;63171;50.520;30.486;2024-02-14T00:15:25;99586.16;;;10.91;100.00
45253;BME280;63171;50.520;30.486;2024-02-14T00:16:15;99581.97;;;10.88;100.00
45253;BME280;63171;50.520;30.486;2024-02-14T00:17:06;99579.44;;;10.87;100.00
45253;BME280;63171;50.520;30.486;2024-02-14T00:17:56;99578.50;;;10.88;100.00
45253;BME280;63171;50.520;30.486;2024-02-14T00:18:47;99592.44;;;10.88;100.00
45253;BME280;63171;50.520;30.486;2024-02-14T00:19:37;99583.31;;;10.81;100.00
45253;BME280;63171;50.520;30.486;2024-02-14T00:20:28;99586.97;;;10.79;100.00
45253;BME280;63171;50.520;30.486;2024-02-14T00:21:19;99586.69;;;10.71;100.00
45253;BME280;63171;50.520;30.486;2024-02-14T00:22:09;99594.19;;;10.62;100.00
45253;BME280;63171;50.520;30.486;2024-02-14T00:22:59;99592.63;;;10.60;100.00
45253;BME280;63171;50.520;30.486;2024-02-14T00:23:51;99592.19;;;10.66;100.00
45253;BME280;63171;50.520;30.486;2024-02-14T00:24:40;99600.78;;;10.68;100.00
45253;BME280;63171;50.520;30.486;2024-02-14T00:25:34;99586.47;;;10.74;100.00
45253;BME280;63171;50.520;30.486;2024-02-14T00:26:25;99592.53;;;10.74;100.00
45253;BME280;63171;50.520;30.486;2024-02-14T00:27:14;99586.25;;;10.77;100.00
45253;BME280;63171;50.520;30.486;2024-02-14T00:28:05;99589.50;;;10.80;100.00
45253;BME280;63171;50.520;30.486;2024-02-14T00:28:59;99580.69;;;10.81;100.00
45253;BME280;63171;50.520;30.486;2024-02-14T00:29:48;99591.50;;;10.77;100.00
45253;BME280;63171;50.520;30.486;2024-02-14T00:30:49;99582.41;;;10.82;100.00
45253;BME280;63171;50.520;30.486;2024-02-14T00:31:42;99588.16;;;10.87;100.00
45253;BME280;63171;50.520;30.486;2024-02-14T00:32:37;99581.13;;;10.88;100.00
45253;BME280;63171;50.520;30.486;2024-02-14T00:33:29;99588.78;;;10.91;100.00
45253;BME280;63171;50.520;30.486;2024-02-14T00:34:21;99588.66;;;10.92;100.00
45253;BME280;63171;50.520;30.486;2024-02-14T00:35:11;99590.44;;;10.92;100.00
45253;BME280;63171;50.520;30.486;2024-02-14T00:36:03;99589.41;;;10.94;100.00
45253;BME280;63171;50.520;30.486;2024-02-14T00:36:56;99589.41;;;10.94;100.00
45253;BME280;63171;50.520;30.486;2024-02-14T00:37:46;99586.78;;;10.94;100.00
45253;BME280;63171;50.520;30.486;2024-02-14T00:38:36;99590.34;;;10.93;100.00
45253;BME280;63171;50.520;30.486;2024-02-14T00:39:26;99583.97;;;10.98;100.00
45253;BME280;63171;50.520;30.486;2024-02-14T00:40:16;99586.47;;;10.99;100.00
45253;BME280;63171;50.520;30.486;2024-02-14T00:41:10;99581.25;;;10.99;100.00
45253;BME280;63171;50.520;30.486;2024-02-14T00:42:02;99593.50;;;10.99;100.00
45253;BME280;63171;50.520;30.486;2024-02-14T00:43:00;99591.81;;;10.98;100.00
45253;BME280;63171;50.520;30.486;2024-02-14T00:43:51;99590.34;;;10.93;100.00
45253;BME280;63171;50.520;30.486;2024-02-14T00:44:41;99592.97;;;10.93;100.00
45253;BME280;63171;50.520;30.486;2024-02-14T00:45:31;99586.03;;;10.92;100.00
45253;BME280;63171;50.520;30.486;2024-02-14T00:46:24;99588.66;;;10.92;100.00
45253;BME280;63171;50.520;30.486;2024-02-14T00:47:14;99592.34;;;10.90;100.00
45253;BME280;63171;50.520;30.486;2024-02-14T00:48:05;99595.78;;;10.90;100.00
45253;BME280;63171;50.520;30.486;2024-02-14T00:48:57;99592.22;;;10.91;100.00
45253;BME280;63171;50.520;30.486;2024-02-14T00:49:56;99593.28;;;10.89;100.00
45253;BME280;63171;50.520;30.486;2024-02-14T00:50:46;99593.28;;;10.89;100.00
45253;BME280;63171;50.520;30.486;2024-02-14T00:51:38;99594.34;;;10.86;100.00
45253;BME280;63171;50.520;30.486;2024-02-14T00:52:29;99592.44;;;10.88;100.00
45253;BME280;63171;50.520;30.486;2024-02-14T00:53:19;99599.25;;;10.91;100.00
45253;BME280;63171;50.520;30.486;2024-02-14T00:54:11;99600.81;;;10.93;100.00
45253;BME280;63171;50.520;30.486;2024-02-14T00:55:01;99593.72;;;10.95;100.00
45253;BME280;63171;50.520;30.486;2024-02-14T00:55:52;99597.19;;;10.96;100.00
45253;BME280;63171;50.520;30.486;2024-02-14T00:56:42;99591.00;;;10.97;100.00
45253;BME280;63171;50.520;30.486;2024-02-14T00:57:34;99590.16;;;10.97;100.00
45253;BME280;63171;50.520;30.486;2024-02-14T00:58:28;99598.97;;;10.95;100.00
45253;BME280;63171;50.520;30.486;2024-02-14T00:59:18;99599.69;;;10.98;100.00
45253;BME280;63171;50.520;30.486;2024-02-14T01:00:08;99599.03;;;10.94;100.00
45253;BME280;63171;50.520;30.486;2024-02-14T01:02:26;99598.41;;;10.90;100.00
45253;BME280;63171;50.520;30.486;2024-02-14T01:03:17;99596.94;;;10.86;100.00
45253;BME280;63171;50.520;30.486;2024-02-14T01:04:07;99600.72;;;10.82;100.00
45253;BME280;63171;50.520;30.486;2024-02-14T01:04:57;99598.63;;;10.75;100.00
45253;BME280;63171;50.520;30.486;2024-02-14T01:05:48;99598.09;;;10.70;100.00
45253;BME280;63171;50.520;30.486;2024-02-14T01:06:39;99598.72;;;10.73;100.00
45253;BME280;63171;50.520;30.486;2024-02-14T01:07:29;99596.00;;;10.75;100.00
45253;BME280;63171;50.520;30.486;2024-02-14T01:08:20;99600.28;;;10.76;100.00
45253;BME280;63171;50.520;30.486;2024-02-14T01:09:10;99596.72;;;10.77;100.00
45253;BME280;63171;50.520;30.486;2024-02-14T01:10:01;99590.66;;;10.76;100.00
45253;BME280;63171;50.520;30.486;2024-02-14T01:10:51;99599.44;;;10.75;100.00
45253;BME280;63171;50.520;30.486;2024-02-14T01:11:41;99595.06;;;10.76;100.00
45253;BME280;63171;50.520;30.486;2024-02-14T01:12:32;99597.66;;;10.76;100.00
45253;BME280;63171;50.520;30.486;2024-02-14T01:13:22;99604.69;;;10.75;100.00
45253;BME280;63171;50.520;30.486;2024-02-14T01:14:12;99594.22;;;10.75;100.00
45253;BME280;63171;50.520;30.486;2024-02-14T01:15:04;99590.66;;;10.76;100.00
45253;BME280;63171;50.520;30.486;2024-02-14T01:15:54;99590.97;;;10.72;100.00
45253;BME280;63171;50.520;30.486;2024-02-14T01:16:45;99598.81;;;10.72;100.00
45253;BME280;63171;50.520;30.486;2024-02-14T01:17:35;99592.53;;;10.74;100.00
45253;BME280;63171;50.520;30.486;2024-02-14T01:18:27;99593.38;;;10.75;100.00
45253;BME280;63171;50.520;30.486;2024-02-14T01:19:18;99588.97;;;10.75;100.00
45253;BME280;63171;50.520;30.486;2024-02-14T01:20:08;99591.59;;;10.75;100.00
45253;BME280;63171;50.520;30.486;2024-02-14T01:20:59;99583.41;;;10.80;100.00
45253;BME280;63171;50.520;30.486;2024-02-14T01:21:51;99589.72;;;10.77;100.00
45253;BME280;63171;50.520;30.486;2024-02-14T01:22:41;99582.69;;;10.78;100.00
45253;BME280;63171;50.520;30.486;2024-02-14T01:23:32;99579.34;;;10.76;100.00
45253;BME280;63171;50.520;30.486;2024-02-14T01:24:22;99581.34;;;10.72;100.00
45253;BME280;63171;50.520;30.486;2024-02-14T01:25:16;99585.50;;;10.62;100.00
45253;BME280;63171;50.520;30.486;2024-02-14T01:26:05;99586.84;;;10.55;100.00
45253;BME280;63171;50.520;30.486;2024-02-14T01:26:56;99587.78;;;10.54;100.00
45253;BME280;63171;50.520;30.486;2024-02-14T01:27:47;99588.09;;;10.49;100.00
45253;BME280;63171;50.520;30.486;2024-02-14T01:28:38;99584.31;;;10.53;100.00
45253;BME280;63171;50.520;30.486;2024-02-14T01:29:28;99590.91;;;10.46;100.00
45253;BME280;63171;50.520;30.486;2024-02-14T01:30:18;99592.25;;;10.39;100.00
45253;BME280;63171;50.520;30.486;2024-02-14T01:31:09;99597.91;;;10.33;100.00
45253;BME280;63171;50.520;30.486;2024-02-14T01:32:01;99597.28;;;10.29;100.00
45253;BME280;63171;50.520;30.486;2024-02-14T01:32:52;99591.19;;;10.29;100.00
45253;BME280;63171;50.520;30.486;2024-02-14T01:33:43;99594.25;;;10.35;100.00
45253;BME280;63171;50.520;30.486;2024-02-14T01:34:33;99592.97;;;10.28;100.00
45253;BME280;63171;50.520;30.486;2024-02-14T01:35:23;99589.81;;;10.23;100.00
45253;BME280;63171;50.520;30.486;2024-02-14T01:36:13;99585.41;;;10.24;100.00
45253;BME280;63171;50.520;30.486;2024-02-14T01:37:05;99583.16;;;10.18;100.00
45253;BME280;63171;50.520;30.486;2024-02-14T01:37:55;99578.63;;;10.07;100.00
45253;BME280;63171;50.520;30.486;2024-02-14T01:38:46;99582.28;;;10.04;100.00
45253;BME280;63171;50.520;30.486;2024-02-14T01:39:36;99582.09;;;10.07;100.00
45253;BME280;63171;50.520;30.486;2024-02-14T01:40:26;99570.56;;;10.10;100.00
45253;BME280;63171;50.520;30.486;2024-02-14T01:41:16;99575.28;;;10.05;100.00
45253;BME280;63171;50.520;30.486;2024-02-14T01:42:07;99569.72;;;10.10;100.00
45253;BME280;63171;50.520;30.486;2024-02-14T01:42:57;99573.41;;;10.07;100.00
45253;BME280;63171;50.520;30.486;2024-02-14T01:43:46;99576.00;;;10.07;100.00
45253;BME280;63171;50.520;30.486;2024-02-14T01:44:37;99565.44;;;10.08;100.00
45253;BME280;63171;50.520;30.486;2024-02-14T01:45:27;99568.16;;;10.07;100.00
45253;BME280;63171;50.520;30.486;2024-02-14T01:46:18;99569.88;;;9.94;100.00
45253;BME280;63171;50.520;30.486;2024-02-14T01:47:08;99572.25;;;9.84;100.00
45253;BME280;63171;50.520;30.486;2024-02-14T01:47:58;99578.81;;;9.77;100.00
45253;BME280;63171;50.520;30.486;2024-02-14T01:48:49;99576.84;;;9.81;100.00
45253;BME280;63171;50.520;30.486;2024-02-14T01:49:39;99576.63;;;9.84;100.00
45253;BME280;63171;50.520;30.486;2024-02-14T01:50:33;99584.00;;;9.91;100.00
45253;BME280;63171;50.520;30.486;2024-02-14T01:51:24;99581.94;;;9.96;100.00
45253;BME280;63171;50.520;30.486;2024-02-14T01:52:16;99585.06;;;9.89;100.00
45253;BME280;63171;50.520;30.486;2024-02-14T01:53:06;99589.72;;;9.84;100.00
45253;BME280;63171;50.520;30.486;2024-02-14T01:53:58;99585.97;;;9.88;100.00
45253;BME280;63171;50.520;30.486;2024-02-14T01:54:48;99593.63;;;9.91;100.00
45253;BME280;63171;50.520;30.486;2024-02-14T01:55:38;99585.88;;;9.89;100.00
45253;BME280;63171;50.520;30.486;2024-02-14T01:56:29;99584.69;;;9.81;100.00
45253;BME280;63171;50.520;30.486;2024-02-14T01:57:19;99580.22;;;9.68;100.00
45253;BME280;63171;50.520;30.486;2024-02-14T01:58:09;99582.44;;;9.74;100.00
45253;BME280;63171;50.520;30.486;2024-02-14T01:59:00;99582.66;;;9.71;100.00
45253;BME280;63171;50.520;30.486;2024-02-14T01:59:51;99584.78;;;9.79;100.00
45253;BME280;63171;50.520;30.486;2024-02-14T02:00:43;99580.50;;;9.78;100.00
45253;BME280;63171;50.520;30.486;2024-02-14T02:01:36;99580.78;;;9.73;100.00
45253;BME280;63171;50.520;30.486;2024-02-14T02:02:26;99581.81;;;9.71;100.00
45253;BME280;63171;50.520;30.486;2024-02-14T02:03:17;99580.25;;;9.54;100.00
45253;BME280;63171;50.520;30.486;2024-02-14T02:04:09;99581.47;;;9.63;100.00
45253;BME280;63171;50.520;30.486;2024-02-14T02:04:59;99583.25;;;9.62;100.00
45253;BME280;63171;50.520;30.486;2024-02-14T02:05:49;99585.94;;;9.75;100.00
45253;BME280;63171;50.520;30.486;2024-02-14T02:06:40;99588.91;;;9.69;100.00
45253;BME280;63171;50.520;30.486;2024-02-14T02:07:33;99582.75;;;9.70;100.00
45253;BME280;63171;50.520;30.486;2024-02-14T02:08:24;99589.44;;;9.74;100.00
45253;BME280;63171;50.520;30.486;2024-02-14T02:09:14;99593.00;;;9.73;100.00
45253;BME280;63171;50.520;30.486;2024-02-14T02:10:04;99594.22;;;9.82;100.00
45253;BME280;63171;50.520;30.486;2024-02-14T02:10:55;99596.16;;;9.92;100.00
45253;BME280;63171;50.520;30.486;2024-02-14T02:11:46;99593.63;;;9.91;100.00
45253;BME280;63171;50.520;30.486;2024-02-14T02:12:38;99600.44;;;9.93;100.00
45253;BME280;63171;50.520;30.486;2024-02-14T02:13:28;99601.28;;;9.94;100.00
45253;BME280;63171;50.520;30.486;2024-02-14T02:14:20;99599.59;;;9.93;100.00
45253;BME280;63171;50.520;30.486;2024-02-14T02:15:11;99597.19;;;9.90;100.00
45253;BME280;63171;50.520;30.486;2024-02-14T02:16:02;99601.00;;;9.84;100.00
45253;BME280;63171;50.520;30.486;2024-02-14T02:16:54;99600.91;;;9.86;100.00
45253;BME280;63171;50.520;30.486;2024-02-14T02:17:44;99606.84;;;9.75;100.00
45253;BME280;63171;50.520;30.486;2024-02-14T02:18:38;99597.59;;;9.69;100.00
45253;BME280;63171;50.520;30.486;2024-02-14T02:19:29;99601.34;;;9.65;100.00
45253;BME280;63171;50.520;30.486;2024-02-14T02:20:18;99605.00;;;9.63;100.00
45253;BME280;63171;50.520;30.486;2024-02-14T02:21:09;99608.44;;;9.63;100.00
45253;BME280;63171;50.520;30.486;2024-02-14T02:22:02;99605.84;;;9.63;100.00
45253;BME280;63171;50.520;30.486;2024-02-14T02:22:55;99608.06;;;9.69;100.00
45253;BME280;63171;50.520;30.486;2024-02-14T02:23:46;99616.75;;;9.70;100.00
45253;BME280;63171;50.520;30.486;2024-02-14T02:24:37;99610.88;;;9.66;100.00
45253;BME280;63171;50.520;30.486;2024-02-14T02:25:27;99613.38;;;9.68;100.00
45253;BME280;63171;50.520;30.486;2024-02-14T02:26:17;99617.13;;;9.64;100.00
45253;BME280;63171;50.520;30.486;2024-02-14T02:27:07;99616.00;;;9.68;100.00
45253;BME280;63171;50.520;30.486;2024-02-14T02:27:59;99614.13;;;9.70;100.00
45253;BME280;63171;50.520;30.486;2024-02-14T02:28:49;99610.56;;;9.71;100.00
45253;BME280;63171;50.520;30.486;2024-02-14T02:29:40;99610.28;;;9.61;100.00
45253;BME280;63171;50.520;30.486;2024-02-14T02:30:29;99616.28;;;9.63;100.00
45253;BME280;63171;50.520;30.486;2024-02-14T02:31:20;99614.16;;;9.56;100.00
45253;BME280;63171;50.520;30.486;2024-02-14T02:32:11;99611.34;;;9.44;100.00
45253;BME280;63171;50.520;30.486;2024-02-14T02:33:02;99610.78;;;9.54;100.00
45253;BME280;63171;50.520;30.486;2024-02-14T02:33:52;99614.03;;;9.57;100.00
45253;BME280;63171;50.520;30.486;2024-02-14T02:34:43;99613.09;;;9.58;100.00
45253;BME280;63171;50.520;30.486;2024-02-14T02:35:34;99617.59;;;9.56;100.00
45253;BME280;63171;50.520;30.486;2024-02-14T02:36:24;99615.72;;;9.58;100.00
45253;BME280;63171;50.520;30.486;2024-02-14T02:37:19;99621.31;;;9.66;100.00
45253;BME280;63171;50.520;30.486;2024-02-14T02:38:10;99623.00;;;9.67;100.00
45253;BME280;63171;50.520;30.486;2024-02-14T02:39:01;99610.13;;;9.64;100.00
45253;BME280;63171;50.520;30.486;2024-02-14T02:39:51;99615.53;;;9.61;100.00
45253;BME280;63171;50.520;30.486;2024-02-14T02:40:42;99614.78;;;9.59;100.00
45253;BME280;63171;50.520;30.486;2024-02-14T02:41:32;99616.47;;;9.60;100.00
45253;BME280;63171;50.520;30.486;2024-02-14T02:42:23;99619.91;;;9.61;100.00
45253;BME280;63171;50.520;30.486;2024-02-14T02:43:12;99617.16;;;9.50;100.00
45253;BME280;63171;50.520;30.486;2024-02-14T02:44:02;99614.16;;;9.41;100.00
45253;BME280;63171;50.520;30.486;2024-02-14T02:44:56;99621.44;;;9.36;100.00
45253;BME280;63171;50.520;30.486;2024-02-14T02:45:45;99616.69;;;9.43;100.00
45253;BME280;63171;50.520;30.486;2024-02-14T02:46:36;99625.44;;;9.42;100.00
45253;BME280;63171;50.520;30.486;2024-02-14T02:47:26;99619.19;;;9.44;100.00
45253;BME280;63171;50.520;30.486;2024-02-14T02:48:17;99621.53;;;9.49;100.00
45253;BME280;63171;50.520;30.486;2024-02-14T02:49:09;99626.47;;;9.54;100.00
45253;BME280;63171;50.520;30.486;2024-02-14T02:49:59;99631.16;;;9.48;100.00
45253;BME280;63171;50.520;30.486;2024-02-14T02:50:53;99632.25;;;9.44;100.00
45253;BME280;63171;50.520;30.486;2024-02-14T02:51:44;99625.94;;;9.48;100.00
45253;BME280;63171;50.520;30.486;2024-02-14T02:52:33;99628.25;;;9.53;100.00
45253;BME280;63171;50.520;30.486;2024-02-14T02:53:24;99627.13;;;9.57;100.00
45253;BME280;63171;50.520;30.486;2024-02-14T02:54:16;99623.03;;;9.53;100.00
45253;BME280;63171;50.520;30.486;2024-02-14T02:55:06;99625.25;;;9.45;100.00
45253;BME280;63171;50.520;30.486;2024-02-14T02:55:56;99627.53;;;9.37;100.00
45253;BME280;63171;50.520;30.486;2024-02-14T02:56:47;99624.81;;;9.38;100.00
45253;BME280;63171;50.520;30.486;2024-02-14T02:57:37;99627.13;;;9.43;100.00
45253;BME280;63171;50.520;30.486;2024-02-14T02:58:29;99626.59;;;9.38;100.00
45253;BME280;63171;50.520;30.486;2024-02-14T02:59:19;99627.22;;;9.41;100.00
45253;BME280;63171;50.520;30.486;2024-02-14T03:00:10;99629.00;;;9.41;100.00
45253;BME280;63171;50.520;30.486;2024-02-14T03:01:02;99626.69;;;9.36;100.00
45253;BME280;63171;50.520;30.486;2024-02-14T03:01:53;99626.50;;;9.39;100.00
45253;BME280;63171;50.520;30.486;2024-02-14T03:02:43;99629.66;;;9.30;100.00
45253;BME280;63171;50.520;30.486;2024-02-14T03:03:33;99623.03;;;9.25;100.00
45253;BME280;63171;50.520;30.486;2024-02-14T03:04:23;99620.78;;;9.18;100.00
45253;BME280;63171;50.520;30.486;2024-02-14T03:05:14;99624.31;;;9.17;100.00
45253;BME280;63171;50.520;30.486;2024-02-14T03:06:07;99625.06;;;9.19;100.00
45253;BME280;63171;50.520;30.486;2024-02-14T03:06:57;99636.09;;;9.10;100.00
45253;BME280;63171;50.520;30.486;2024-02-14T03:07:49;99629.25;;;9.08;100.00
45253;BME280;63171;50.520;30.486;2024-02-14T03:08:41;99631.81;;;9.09;100.00
45253;BME280;63171;50.520;30.486;2024-02-14T03:09:31;99635.81;;;9.15;100.00
45253;BME280;63171;50.520;30.486;2024-02-14T03:10:22;99630.69;;;9.28;100.00
45253;BME280;63171;50.520;30.486;2024-02-14T03:11:12;99631.72;;;9.25;100.00
45253;BME280;63171;50.520;30.486;2024-02-14T03:12:05;99639.44;;;9.12;100.00
45253;BME280;63171;50.520;30.486;2024-02-14T03:12:55;99640.28;;;9.13;100.00
45253;BME280;63171;50.520;30.486;2024-02-14T03:13:44;99644.88;;;9.09;100.00
45253;BME280;63171;50.520;30.486;2024-02-14T03:14:38;99639.44;;;9.12;100.00
45253;BME280;63171;50.520;30.486;2024-02-14T03:15:29;99645.31;;;9.16;100.00
45253;BME280;63171;50.520;30.486;2024-02-14T03:16:19;99652.69;;;9.09;100.00
45253;BME280;63171;50.520;30.486;2024-02-14T03:17:09;99645.78;;;9.08;100.00
45253;BME280;63171;50.520;30.486;2024-02-14T03:17:59;99654.38;;;9.10;100.00
45253;BME280;63171;50.520;30.486;2024-02-14T03:18:50;99648.88;;;9.15;100.00
45253;BME280;63171;50.520;30.486;2024-02-14T03:19:40;99651.84;;;9.09;100.00
45253;BME280;63171;50.520;30.486;2024-02-14T03:20:30;99651.66;;;9.12;100.00
45253;BME280;63171;50.520;30.486;2024-02-14T03:21:21;99650.94;;;9.10;100.00
45253;BME280;63171;50.520;30.486;2024-02-14T03:22:11;99646.16;;;9.16;100.00
45253;BME280;63171;50.520;30.486;2024-02-14T03:23:01;99643.53;;;9.16;100.00
45253;BME280;63171;50.520;30.486;2024-02-14T03:23:54;99644.38;;;9.17;100.00
45253;BME280;63171;50.520;30.486;2024-02-14T03:24:44;99647.19;;;9.14;100.00
45253;BME280;63171;50.520;30.486;2024-02-14T03:25:36;99647.09;;;9.15;100.00
45253;BME280;63171;50.520;30.486;2024-02-14T03:26:27;99646.25;;;9.15;100.00
45253;BME280;63171;50.520;30.486;2024-02-14T03:27:17;99648.97;;;9.13;100.00
45253;BME280;63171;50.520;30.486;2024-02-14T03:28:08;99642.31;;;9.08;100.00
45253;BME280;63171;50.520;30.486;2024-02-14T03:28:58;99644.03;;;9.09;100.00
45253;BME280;63171;50.520;30.486;2024-02-14T03:29:49;99643.25;;;9.07;100.00
45253;BME280;63171;50.520;30.486;2024-02-14T03:30:40;99648.97;;;9.13;100.00
45253;BME280;63171;50.520;30.486;2024-02-14T03:31:31;99643.19;;;9.08;100.00
45253;BME280;63171;50.520;30.486;2024-02-14T03:32:21;99649.88;;;8.98;100.00
45253;BME280;63171;50.520;30.486;2024-02-14T03:33:12;99638.47;;;8.85;100.00
45253;BME280;63171;50.520;30.486;2024-02-14T03:34:02;99651.13;;;8.77;100.00
45253;BME280;63171;50.520;30.486;2024-02-14T03:34:52;99647.94;;;8.72;100.00
45253;BME280;63171;50.520;30.486;2024-02-14T03:35:43;99646.00;;;8.75;100.00
45253;BME280;63171;50.520;30.486;2024-02-14T03:36:33;99644.31;;;8.74;100.00
45253;BME280;63171;50.520;30.486;2024-02-14T03:37:23;99645.72;;;8.80;100.00
45253;BME280;63171;50.520;30.486;2024-02-14T03:38:13;99646.97;;;8.88;100.00
45253;BME280;63171;50.520;30.486;2024-02-14T03:39:05;99651.25;;;8.89;100.00
45253;BME280;63171;50.520;30.486;2024-02-14T03:39:56;99639.31;;;8.85;100.00
45253;BME280;63171;50.520;30.486;2024-02-14T03:40:47;99649.28;;;8.93;100.00
45253;BME280;63171;50.520;30.486;2024-02-14T03:41:37;99651.81;;;8.95;100.00
45253;BME280;63171;50.520;30.486;2024-02-14T03:42:27;99648.34;;;8.94;100.00
45253;BME280;63171;50.520;30.486;2024-02-14T03:43:18;99649.66;;;8.87;100.00
45253;BME280;63171;50.520;30.486;2024-02-14T03:44:07;99658.25;;;8.89;100.00
45253;BME280;63171;50.520;30.486;2024-02-14T03:44:59;99663.47;;;8.89;100.00
45253;BME280;63171;50.520;30.486;2024-02-14T03:45:52;99662.44;;;8.92;100.00
45253;BME280;63171;50.520;30.486;2024-02-14T03:46:41;99657.91;;;8.95;100.00
45253;BME280;63171;50.520;30.486;2024-02-14T03:47:31;99662.00;;;8.99;100.00
45253;BME280;63171;50.520;30.486;2024-02-14T03:48:22;99672.53;;;8.98;100.00
45253;BME280;63171;50.520;30.486;2024-02-14T03:49:12;99676.94;;;8.97;100.00
45253;BME280;63171;50.520;30.486;2024-02-14T03:50:02;99672.44;;;8.99;100.00
45253;BME280;63171;50.520;30.486;2024-02-14T03:50:53;99678.00;;;8.93;100.00
45253;BME280;63171;50.520;30.486;2024-02-14T03:51:43;99673.19;;;9.01;100.00
45253;BME280;63171;50.520;30.486;2024-02-14T03:52:33;99674.97;;;9.01;100.00
45253;BME280;63171;50.520;30.486;2024-02-14T03:53:25;99676.19;;;8.95;100.00
45253;BME280;63171;50.520;30.486;2024-02-14T03:54:16;99675.16;;;8.98;100.00
45253;BME280;63171;50.520;30.486;2024-02-14T03:55:07;99671.75;;;8.81;100.00
45253;BME280;63171;50.520;30.486;2024-02-14T03:55:58;99670.75;;;8.84;100.00
45253;BME280;63171;50.520;30.486;2024-02-14T03:56:48;99670.56;;;8.87;100.00
45253;BME280;63171;50.520;30.486;2024-02-14T03:57:40;99678.94;;;8.92;100.00
45253;BME280;63171;50.520;30.486;2024-02-14T03:58:30;99672.88;;;8.92;100.00
45253;BME280;63171;50.520;30.486;2024-02-14T03:59:22;99674.75;;;8.89;100.00
45253;BME280;63171;50.520;30.486;2024-02-14T04:00:14;99675.78;;;8.87;100.00
45253;BME280;63171;50.520;30.486;2024-02-14T04:01:05;99670.75;;;8.84;100.00
45253;BME280;63171;50.520;30.486;2024-02-14T04:01:58;99667.53;;;8.79;100.00
45253;BME280;63171;50.520;30.486;2024-02-14T04:02:49;99669.22;;;8.80;100.00
45253;BME280;63171;50.520;30.486;2024-02-14T04:03:46;99670.97;;;8.79;100.00
45253;BME280;63171;50.520;30.486;2024-02-14T04:04:40;99675.81;;;8.71;100.00
45253;BME280;63171;50.520;30.486;2024-02-14T04:05:33;99668.75;;;8.73;100.00
45253;BME280;63171;50.520;30.486;2024-02-14T04:06:23;99672.63;;;8.66;100.00
45253;BME280;63171;50.520;30.486;2024-02-14T04:07:19;99673.47;;;8.67;100.00
45253;BME280;63171;50.520;30.486;2024-02-14T04:08:13;99678.69;;;8.67;100.00
45253;BME280;63171;50.520;30.486;2024-02-14T04:09:03;99672.81;;;8.63;100.00
45253;BME280;63171;50.520;30.486;2024-02-14T04:10:04;99679.69;;;8.64;100.00
45253;BME280;63171;50.520;30.486;2024-02-14T04:10:56;99676.53;;;8.59;100.00
45253;BME280;63171;50.520;30.486;2024-02-14T04:11:50;99684.28;;;8.61;100.00
45253;BME280;63171;50.520;30.486;2024-02-14T04:12:40;99678.88;;;8.64;100.00
45253;BME280;63171;50.520;30.486;2024-02-14T04:13:31;99685.38;;;8.56;100.00
45253;BME280;63171;50.520;30.486;2024-02-14T04:14:21;99686.03;;;8.60;100.00
45253;BME280;63171;50.520;30.486;2024-02-14T04:15:11;99688.13;;;8.53;100.00
45253;BME280;63171;50.520;30.486;2024-02-14T04:16:03;99688.00;;;8.56;100.00
45253;BME280;63171;50.520;30.486;2024-02-14T04:16:54;99689.50;;;8.61;100.00
45253;BME280;63171;50.520;30.486;2024-02-14T04:17:43;99694.47;;;8.49;100.00
45253;BME280;63171;50.520;30.486;2024-02-14T04:18:34;99685.22;;;8.44;100.00
45253;BME280;63171;50.520;30.486;2024-02-14T04:19:23;99696.16;;;8.50;100.00
45253;BME280;63171;50.520;30.486;2024-02-14T04:20:13;99697.84;;;8.51;100.00
45253;BME280;63171;50.520;30.486;2024-02-14T04:21:07;99688.22;;;8.52;100.00
45253;BME280;63171;50.520;30.486;2024-02-14T04:21:57;99694.19;;;8.54;100.00
45253;BME280;63171;50.520;30.486;2024-02-14T04:22:48;99693.69;;;8.63;100.00
45253;BME280;63171;50.520;30.486;2024-02-14T04:23:37;99695.97;;;8.69;100.00
45253;BME280;63171;50.520;30.486;2024-02-14T04:24:28;99690.97;;;8.65;100.00
45253;BME280;63171;50.520;30.486;2024-02-14T04:25:20;99693.34;;;8.53;100.00
45253;BME280;63171;50.520;30.486;2024-02-14T04:26:18;99702.38;;;8.48;100.00